sensor_id;sensor_type;location;lat;lon;timestamp;pressure;altitude;pressure_sealevel;temperature;humidity
63090;BME280;49174;43.198;27.824;2023-07-31T00:00:08;100946.13;;;19.57;100.00
63090;BME280;49174;43.198;27.824;2023-07-31T00:02:36;100951.28;;;19.53;100.00
63090;BME280;49174;43.198;27.824;2023-07-31T00:05:02;100940.84;;;19.50;100.00
63090;BME280;49174;43.198;27.824;2023-07-31T00:07:28;100935.59;;;19.49;100.00
63090;BME280;49174;43.198;27.824;2023-07-31T00:09:53;100937.00;;;19.51;100.00
63090;BME280;49174;43.198;27.824;2023-07-31T00:12:20;100933.69;;;19.49;100.00
63090;BME280;49174;43.198;27.824;2023-07-31T00:14:45;100948.44;;;19.48;100.00
63090;BME280;49174;43.198;27.824;2023-07-31T00:17:11;100949.78;;;19.46;100.00
63090;BME280;49174;43.198;27.824;2023-07-31T00:19:36;100946.47;;;19.43;100.00
63090;BME280;49174;43.198;27.824;2023-07-31T00:22:02;100948.97;;;19.45;100.00
63090;BME280;49174;43.198;27.824;2023-07-31T00:24:28;100946.47;;;19.43;100.00
63090;BME280;49174;43.198;27.824;2023-07-31T00:26:53;100951.94;;;19.43;100.00
63090;BME280;49174;43.198;27.824;2023-07-31T00:29:19;100954.97;;;19.47;100.00
63090;BME280;49174;43.198;27.824;2023-07-31T00:31:44;100953.34;;;19.46;100.00
63090;BME280;49174;43.198;27.824;2023-07-31T00:34:10;100942.66;;;19.45;100.00
63090;BME280;49174;43.198;27.824;2023-07-31T00:36:35;100945.63;;;19.43;100.00
63090;BME280;49174;43.198;27.824;2023-07-31T00:39:01;100944.81;;;19.42;100.00
63090;BME280;49174;43.198;27.824;2023-07-31T00:41:26;100944.91;;;19.48;100.00
63090;BME280;49174;43.198;27.824;2023-07-31T00:43:52;100943.22;;;19.47;100.00
63090;BME280;49174;43.198;27.824;2023-07-31T00:46:17;100958.41;;;19.37;100.00
63090;BME280;49174;43.198;27.824;2023-07-31T00:48:43;100957.25;;;19.33;100.00
63090;BME280;49174;43.198;27.824;2023-07-31T00:51:09;100957.50;;;19.32;100.00
63090;BME280;49174;43.198;27.824;2023-07-31T00:53:35;100953.94;;;19.31;100.00
63090;BME280;49174;43.198;27.824;2023-07-31T00:56:00;100956.69;;;19.31;100.00
63090;BME280;49174;43.198;27.824;2023-07-31T00:58:26;100957.50;;;19.32;100.00
63090;BME280;49174;43.198;27.824;2023-07-31T01:00:52;100948.22;;;19.33;100.00
63090;BME280;49174;43.198;27.824;2023-07-31T01:03:17;100947.47;;;19.37;100.00
63090;BME280;49174;43.198;27.824;2023-07-31T01:06:52;100945.56;;;19.38;100.00
63090;BME280;49174;43.198;27.824;2023-07-31T01:08:59;100954.19;;;19.30;100.00
63090;BME280;49174;43.198;27.824;2023-07-31T01:11:29;100950.38;;;19.31;100.00
63090;BME280;49174;43.198;27.824;2023-07-31T01:13:56;100952.28;;;19.30;100.00
63090;BME280;49174;43.198;27.824;2023-07-31T01:16:22;100955.28;;;19.29;100.00
63090;BME280;49174;43.198;27.824;2023-07-31T01:18:48;100947.56;;;19.26;100.00
63090;BME280;49174;43.198;27.824;2023-07-31T01:26:23;100952.28;;;19.13;100.00
63090;BME280;49174;43.198;27.824;2023-07-31T01:29:06;100968.03;;;19.06;100.00
63090;BME280;49174;43.198;27.824;2023-07-31T01:31:35;100972.09;;;19.04;100.00
63090;BME280;49174;43.198;27.824;2023-07-31T01:34:02;100974.50;;;19.00;100.00
63090;BME280;49174;43.198;27.824;2023-07-31T01:36:30;100983.53;;;19.01;100.00
63090;BME280;49174;43.198;27.824;2023-07-31T01:38:59;100972.31;;;19.02;100.00
63090;BME280;49174;43.198;27.824;2023-07-31T01:41:26;100965.81;;;19.03;100.00
63090;BME280;49174;43.198;27.824;2023-07-31T01:43:51;100968.59;;;19.08;100.00
63090;BME280;49174;43.198;27.824;2023-07-31T01:46:17;100971.19;;;19.15;100.00
63090;BME280;49174;43.198;27.824;2023-07-31T01:48:42;100977.25;;;19.17;100.00
63090;BME280;49174;43.198;27.824;2023-07-31T01:51:08;100978.66;;;19.19;100.00
63090;BME280;49174;43.198;27.824;2023-07-31T01:53:33;100975.34;;;19.17;100.00
63090;BME280;49174;43.198;27.824;2023-07-31T01:55:59;100972.59;;;19.17;100.00
63090;BME280;49174;43.198;27.824;2023-07-31T01:58:25;100966.03;;;19.18;100.00
63090;BME280;49174;43.198;27.824;2023-07-31T02:00:50;100974.25;;;19.18;100.00
63090;BME280;49174;43.198;27.824;2023-07-31T02:03:16;100980.31;;;19.20;100.00
63090;BME280;49174;43.198;27.824;2023-07-31T02:05:44;100987.41;;;19.22;100.00
63090;BME280;49174;43.198;27.824;2023-07-31T02:08:10;100976.47;;;19.22;100.00
63090;BME280;49174;43.198;27.824;2023-07-31T02:10:35;100972.09;;;19.20;100.00
63090;BME280;49174;43.198;27.824;2023-07-31T02:13:01;100970.44;;;19.19;100.00
63090;BME280;49174;43.198;27.824;2023-07-31T02:15:29;100966.63;;;19.20;100.00
63090;BME280;49174;43.198;27.824;2023-07-31T02:17:55;100965.81;;;19.20;100.00
63090;BME280;49174;43.198;27.824;2023-07-31T02:20:20;100968.28;;;19.22;100.00
63090;BME280;49174;43.198;27.824;2023-07-31T02:22:46;100965.41;;;19.11;100.00
63090;BME280;49174;43.198;27.824;2023-07-31T02:25:13;100965.31;;;19.06;100.00
63090;BME280;49174;43.198;27.824;2023-07-31T02:27:39;100959.25;;;19.04;100.00
63090;BME280;49174;43.198;27.824;2023-07-31T02:30:05;100963.06;;;19.03;100.00
63090;BME280;49174;43.198;27.824;2023-07-31T02:32:31;100962.38;;;18.96;100.00
63090;BME280;49174;43.198;27.824;2023-07-31T02:34:56;100965.03;;;18.91;100.00
63090;BME280;49174;43.198;27.824;2023-07-31T02:37:22;100949.94;;;18.88;100.00
63090;BME280;49174;43.198;27.824;2023-07-31T02:39:48;100941.81;;;18.77;100.00
63090;BME280;49174;43.198;27.824;2023-07-31T02:42:14;100961.78;;;18.77;100.00
63090;BME280;49174;43.198;27.824;2023-07-31T02:44:39;100975.31;;;18.72;100.00
63090;BME280;49174;43.198;27.824;2023-07-31T02:47:05;100981.63;;;18.72;100.00
63090;BME280;49174;43.198;27.824;2023-07-31T02:49:30;100981.88;;;18.71;100.00
63090;BME280;49174;43.198;27.824;2023-07-31T02:51:56;100982.22;;;18.74;100.00
63090;BME280;49174;43.198;27.824;2023-07-31T02:54:21;100983.66;;;18.77;100.00
63090;BME280;49174;43.198;27.824;2023-07-31T02:56:47;100975.44;;;18.77;100.00
63090;BME280;49174;43.198;27.824;2023-07-31T02:59:13;100979.84;;;18.78;100.00
63090;BME280;49174;43.198;27.824;2023-07-31T03:01:39;100978.53;;;18.81;100.00
63090;BME280;49174;43.198;27.824;2023-07-31T03:04:04;100980.78;;;18.84;100.00
63090;BME280;49174;43.198;27.824;2023-07-31T03:06:30;100984.06;;;18.86;100.00
63090;BME280;49174;43.198;27.824;2023-07-31T03:08:55;100987.16;;;18.89;100.00
63090;BME280;49174;43.198;27.824;2023-07-31T03:11:21;100990.72;;;18.90;100.00
63090;BME280;49174;43.198;27.824;2023-07-31T03:13:47;100988.47;;;18.87;100.00
63090;BME280;49174;43.198;27.824;2023-07-31T03:16:12;100989.31;;;18.87;100.00
63090;BME280;49174;43.198;27.824;2023-07-31T03:18:38;100990.94;;;18.88;100.00
63090;BME280;49174;43.198;27.824;2023-07-31T03:21:04;100991.53;;;18.90;100.00
63090;BME280;49174;43.198;27.824;2023-07-31T03:23:30;100993.56;;;18.95;100.00
63090;BME280;49174;43.198;27.824;2023-07-31T03:26:00;100997.34;;;18.94;100.00
63090;BME280;49174;43.198;27.824;2023-07-31T03:28:26;100991.03;;;18.93;100.00
63090;BME280;49174;43.198;27.824;2023-07-31T03:30:52;100993.44;;;18.90;100.00
63090;BME280;49174;43.198;27.824;2023-07-31T03:33:18;100998.34;;;18.88;100.00
63090;BME280;49174;43.198;27.824;2023-07-31T03:35:45;100988.00;;;18.90;100.00
63090;BME280;49174;43.198;27.824;2023-07-31T03:38:11;100991.81;;;18.89;100.00
63090;BME280;49174;43.198;27.824;2023-07-31T03:40:36;100985.84;;;18.92;100.00
63090;BME280;49174;43.198;27.824;2023-07-31T03:43:02;100990.22;;;18.93;100.00
63090;BME280;49174;43.198;27.824;2023-07-31T03:45:27;100994.38;;;18.95;100.00
63090;BME280;49174;43.198;27.824;2023-07-31T03:47:53;100994.13;;;18.97;100.00
63090;BME280;49174;43.198;27.824;2023-07-31T03:50:20;101002.91;;;18.99;100.00
63090;BME280;49174;43.198;27.824;2023-07-31T03:52:45;100996.94;;;19.02;100.00
63090;BME280;49174;43.198;27.824;2023-07-31T03:55:11;100988.25;;;19.05;100.00
63090;BME280;49174;43.198;27.824;2023-07-31T03:57:40;100993.56;;;19.12;100.00
63090;BME280;49174;43.198;27.824;2023-07-31T04:00:06;100991.84;;;19.23;100.00
63090;BME280;49174;43.198;27.824;2023-07-31T04:02:32;100997.13;;;19.29;100.00
63090;BME280;49174;43.198;27.824;2023-07-31T04:04:58;100996.94;;;19.36;100.00
63090;BME280;49174;43.198;27.824;2023-07-31T04:07:23;100996.81;;;19.42;100.00
63090;BME280;49174;43.198;27.824;2023-07-31T04:09:49;100995.56;;;19.50;100.00
63090;BME280;49174;43.198;27.824;2023-07-31T04:12:14;101000.84;;;19.57;100.00
63090;BME280;49174;43.198;27.824;2023-07-31T04:14:40;100996.28;;;19.62;100.00
63090;BME280;49174;43.198;27.824;2023-07-31T04:17:05;100992.84;;;19.67;100.00
63090;BME280;49174;43.198;27.824;2023-07-31T04:19:31;101000.78;;;19.69;100.00
63090;BME280;49174;43.198;27.824;2023-07-31T04:21:57;100994.28;;;19.75;100.00
63090;BME280;49174;43.198;27.824;2023-07-31T04:24:22;100994.13;;;19.81;100.00
63090;BME280;49174;43.198;27.824;2023-07-31T04:26:53;100988.38;;;19.83;100.00
63090;BME280;49174;43.198;27.824;2023-07-31T04:29:19;100989.56;;;19.87;100.00
63090;BME280;49174;43.198;27.824;2023-07-31T04:31:45;100996.16;;;19.91;100.00
63090;BME280;49174;43.198;27.824;2023-07-31T04:34:10;100992.69;;;19.96;100.00
63090;BME280;49174;43.198;27.824;2023-07-31T04:36:37;100993.25;;;19.98;100.00
63090;BME280;49174;43.198;27.824;2023-07-31T04:39:02;100999.63;;;20.03;100.00
63090;BME280;49174;43.198;27.824;2023-07-31T04:41:28;101003.28;;;20.09;100.00
63090;BME280;49174;43.198;27.824;2023-07-31T04:43:53;100998.94;;;20.13;100.00
63090;BME280;49174;43.198;27.824;2023-07-31T04:46:19;101001.16;;;20.16;100.00
63090;BME280;49174;43.198;27.824;2023-07-31T04:48:45;101008.63;;;20.21;100.00
63090;BME280;49174;43.198;27.824;2023-07-31T04:51:10;101009.72;;;20.20;100.00
63090;BME280;49174;43.198;27.824;2023-07-31T04:53:36;101014.69;;;20.23;100.00
63090;BME280;49174;43.198;27.824;2023-07-31T04:56:02;101018.50;;;20.22;100.00
63090;BME280;49174;43.198;27.824;2023-07-31T04:58:28;101012.50;;;20.25;100.00
63090;BME280;49174;43.198;27.824;2023-07-31T05:00:53;101015.63;;;20.34;100.00
63090;BME280;49174;43.198;27.824;2023-07-31T05:03:19;101020.34;;;20.38;100.00
63090;BME280;49174;43.198;27.824;2023-07-31T05:05:44;101019.88;;;20.46;100.00
63090;BME280;49174;43.198;27.824;2023-07-31T05:08:10;101027.69;;;20.55;100.00
63090;BME280;49174;43.198;27.824;2023-07-31T05:10:35;101019.03;;;20.63;100.00
63090;BME280;49174;43.198;27.824;2023-07-31T05:13:01;101037.19;;;20.69;100.00
63090;BME280;49174;43.198;27.824;2023-07-31T05:15:28;101036.78;;;20.82;100.00
63090;BME280;49174;43.198;27.824;2023-07-31T05:17:53;101036.31;;;20.90;100.00
63090;BME280;49174;43.198;27.824;2023-07-31T05:20:20;101035.56;;;21.00;100.00
63090;BME280;49174;43.198;27.824;2023-07-31T05:25:11;101029.69;;;21.13;100.00
63090;BME280;49174;43.198;27.824;2023-07-31T05:27:36;101039.59;;;21.19;100.00
63090;BME280;49174;43.198;27.824;2023-07-31T05:30:02;101039.41;;;21.26;100.00
63090;BME280;49174;43.198;27.824;2023-07-31T05:32:27;101032.03;;;21.32;100.00
63090;BME280;49174;43.198;27.824;2023-07-31T05:34:53;101038.72;;;21.41;100.00
63090;BME280;49174;43.198;27.824;2023-07-31T05:37:19;101034.69;;;21.49;100.00
63090;BME280;49174;43.198;27.824;2023-07-31T05:39:45;101036.38;;;21.55;100.00
63090;BME280;49174;43.198;27.824;2023-07-31T05:42:10;101033.97;;;21.63;100.00
63090;BME280;49174;43.198;27.824;2023-07-31T05:44:36;101034.81;;;21.69;100.00
63090;BME280;49174;43.198;27.824;2023-07-31T05:47:01;101035.97;;;21.78;100.00
63090;BME280;49174;43.198;27.824;2023-07-31T05:49:27;101043.72;;;21.86;100.00
63090;BME280;49174;43.198;27.824;2023-07-31T05:51:52;101051.47;;;21.95;100.00
63090;BME280;49174;43.198;27.824;2023-07-31T05:54:20;101036.16;;;22.04;100.00
63090;BME280;49174;43.198;27.824;2023-07-31T05:56:45;101040.88;;;22.14;100.00
63090;BME280;49174;43.198;27.824;2023-07-31T05:59:12;101037.63;;;22.22;100.00
63090;BME280;49174;43.198;27.824;2023-07-31T06:01:37;101034.63;;;22.28;100.00
63090;BME280;49174;43.198;27.824;2023-07-31T06:04:04;101041.00;;;22.39;100.00
63090;BME280;49174;43.198;27.824;2023-07-31T06:06:30;101043.53;;;22.56;100.00
63090;BME280;49174;43.198;27.824;2023-07-31T06:08:56;101041.66;;;22.67;98.46
63090;BME280;49174;43.198;27.824;2023-07-31T06:11:21;101037.03;;;22.78;98.62
63090;BME280;49174;43.198;27.824;2023-07-31T06:13:47;101040.34;;;22.90;96.90
63090;BME280;49174;43.198;27.824;2023-07-31T06:16:14;101047.53;;;23.01;96.67
63090;BME280;49174;43.198;27.824;2023-07-31T06:18:41;101042.88;;;23.12;90.23
63090;BME280;49174;43.198;27.824;2023-07-31T06:21:07;101053.09;;;23.22;91.43
63090;BME280;49174;43.198;27.824;2023-07-31T06:23:32;101059.44;;;23.27;91.03
63090;BME280;49174;43.198;27.824;2023-07-31T06:25:58;101064.13;;;23.32;89.46
63090;BME280;49174;43.198;27.824;2023-07-31T06:28:30;101061.34;;;23.37;88.03
63090;BME280;49174;43.198;27.824;2023-07-31T06:30:57;101061.34;;;23.42;89.36
63090;BME280;49174;43.198;27.824;2023-07-31T06:33:22;101063.84;;;23.49;89.76
63090;BME280;49174;43.198;27.824;2023-07-31T06:35:48;101064.69;;;23.54;88.71
63090;BME280;49174;43.198;27.824;2023-07-31T06:38:13;101069.63;;;23.57;86.72
63090;BME280;49174;43.198;27.824;2023-07-31T06:40:39;101072.38;;;23.62;84.38
63090;BME280;49174;43.198;27.824;2023-07-31T06:43:06;101070.19;;;23.75;85.97
63090;BME280;49174;43.198;27.824;2023-07-31T06:45:35;101066.88;;;23.88;83.50
63090;BME280;49174;43.198;27.824;2023-07-31T06:48:01;101061.63;;;23.97;82.01
63090;BME280;49174;43.198;27.824;2023-07-31T06:50:31;101062.94;;;24.15;83.00
63090;BME280;49174;43.198;27.824;2023-07-31T06:52:57;101060.66;;;24.32;81.73
63090;BME280;49174;43.198;27.824;2023-07-31T06:55:23;101064.19;;;24.58;84.16
63090;BME280;49174;43.198;27.824;2023-07-31T06:57:51;101067.09;;;24.82;81.95
63090;BME280;49174;43.198;27.824;2023-07-31T07:00:18;101059.78;;;25.07;78.28
63090;BME280;49174;43.198;27.824;2023-07-31T07:02:44;101056.38;;;25.25;77.75
63090;BME280;49174;43.198;27.824;2023-07-31T07:05:12;101056.19;;;25.46;78.79
63090;BME280;49174;43.198;27.824;2023-07-31T07:07:38;101059.06;;;25.64;78.55
63090;BME280;49174;43.198;27.824;2023-07-31T07:10:04;101050.34;;;25.87;77.36
63090;BME280;49174;43.198;27.824;2023-07-31T07:12:31;101053.75;;;26.02;74.07
63090;BME280;49174;43.198;27.824;2023-07-31T07:14:57;101052.75;;;26.17;73.36
63090;BME280;49174;43.198;27.824;2023-07-31T07:17:27;101058.09;;;26.33;72.19
63090;BME280;49174;43.198;27.824;2023-07-31T07:19:53;101048.03;;;26.42;70.36
63090;BME280;49174;43.198;27.824;2023-07-31T07:22:18;101044.00;;;26.58;73.10
63090;BME280;49174;43.198;27.824;2023-07-31T07:24:44;101047.34;;;26.74;69.58
63090;BME280;49174;43.198;27.824;2023-07-31T07:27:09;101049.91;;;26.89;71.49
63090;BME280;49174;43.198;27.824;2023-07-31T07:29:35;101050.06;;;26.98;69.50
63090;BME280;49174;43.198;27.824;2023-07-31T07:32:01;101047.97;;;27.09;69.04
63090;BME280;49174;43.198;27.824;2023-07-31T07:34:27;101049.69;;;27.24;68.39
63090;BME280;49174;43.198;27.824;2023-07-31T07:36:54;101043.41;;;27.37;67.53
63090;BME280;49174;43.198;27.824;2023-07-31T07:39:19;101045.81;;;27.57;66.48
63090;BME280;49174;43.198;27.824;2023-07-31T07:41:46;101049.34;;;27.77;66.41
63090;BME280;49174;43.198;27.824;2023-07-31T07:44:12;101042.41;;;27.93;64.42
63090;BME280;49174;43.198;27.824;2023-07-31T07:46:37;101045.91;;;28.13;65.28
63090;BME280;49174;43.198;27.824;2023-07-31T07:49:03;101057.13;;;28.35;63.74
63090;BME280;49174;43.198;27.824;2023-07-31T07:51:28;101049.44;;;28.46;61.49
63090;BME280;49174;43.198;27.824;2023-07-31T07:53:56;101052.91;;;28.51;60.75
63090;BME280;49174;43.198;27.824;2023-07-31T07:56:22;101054.03;;;28.64;60.28
63090;BME280;49174;43.198;27.824;2023-07-31T07:58:49;101049.69;;;28.72;60.50
63090;BME280;49174;43.198;27.824;2023-07-31T08:01:15;101045.16;;;28.76;60.19
63090;BME280;49174;43.198;27.824;2023-07-31T08:03:41;101048.66;;;28.82;58.54
63090;BME280;49174;43.198;27.824;2023-07-31T08:06:06;101043.09;;;28.82;58.63
63090;BME280;49174;43.198;27.824;2023-07-31T08:08:37;101043.63;;;28.84;59.88
63090;BME280;49174;43.198;27.824;2023-07-31T08:11:03;101045.13;;;29.04;59.64
63090;BME280;49174;43.198;27.824;2023-07-31T08:13:30;101038.75;;;29.26;57.96
63090;BME280;49174;43.198;27.824;2023-07-31T08:15:56;101058.50;;;29.47;58.08
63090;BME280;49174;43.198;27.824;2023-07-31T08:18:22;101054.97;;;29.55;56.39
63090;BME280;49174;43.198;27.824;2023-07-31T08:20:47;101058.50;;;29.69;57.19
63090;BME280;49174;43.198;27.824;2023-07-31T08:23:13;101047.16;;;29.88;54.27
63090;BME280;49174;43.198;27.824;2023-07-31T08:25:39;101043.31;;;30.06;53.72
63090;BME280;49174;43.198;27.824;2023-07-31T08:28:05;101039.94;;;30.18;56.71
63090;BME280;49174;43.198;27.824;2023-07-31T08:30:31;101042.72;;;30.18;54.64
63090;BME280;49174;43.198;27.824;2023-07-31T08:32:57;101049.28;;;30.22;54.08
63090;BME280;49174;43.198;27.824;2023-07-31T08:35:25;101047.53;;;30.35;55.57
63090;BME280;49174;43.198;27.824;2023-07-31T08:37:52;101042.81;;;30.44;56.72
63090;BME280;49174;43.198;27.824;2023-07-31T08:40:18;101046.22;;;30.33;54.00
63090;BME280;49174;43.198;27.824;2023-07-31T08:42:48;101041.03;;;30.09;52.82
63090;BME280;49174;43.198;27.824;2023-07-31T08:45:15;101044.56;;;29.92;56.67
63090;BME280;49174;43.198;27.824;2023-07-31T08:47:51;101043.03;;;29.77;56.41
63090;BME280;49174;43.198;27.824;2023-07-31T08:50:19;101047.38;;;29.69;56.63
63090;BME280;49174;43.198;27.824;2023-07-31T08:52:48;101055.34;;;29.62;56.94
63090;BME280;49174;43.198;27.824;2023-07-31T08:55:14;101055.41;;;29.48;56.59
63090;BME280;49174;43.198;27.824;2023-07-31T08:57:42;101051.75;;;29.39;57.82
63090;BME280;49174;43.198;27.824;2023-07-31T09:00:09;101058.00;;;29.22;57.77
63090;BME280;49174;43.198;27.824;2023-07-31T09:02:46;101061.16;;;29.07;57.51
63090;BME280;49174;43.198;27.824;2023-07-31T09:05:14;101058.50;;;28.88;56.52
63090;BME280;49174;43.198;27.824;2023-07-31T09:07:40;101059.25;;;28.80;57.05
63090;BME280;49174;43.198;27.824;2023-07-31T09:10:06;101055.75;;;28.74;57.43
63090;BME280;49174;43.198;27.824;2023-07-31T09:12:33;101064.53;;;28.67;56.75
63090;BME280;49174;43.198;27.824;2023-07-31T09:14:58;101061.03;;;28.62;56.46
63090;BME280;49174;43.198;27.824;2023-07-31T09:17:31;101066.69;;;28.57;56.56
63090;BME280;49174;43.198;27.824;2023-07-31T09:19:56;101075.13;;;28.51;57.05
63090;BME280;49174;43.198;27.824;2023-07-31T09:22:33;101067.22;;;28.45;56.12
63090;BME280;49174;43.198;27.824;2023-07-31T09:25:20;101066.38;;;28.44;55.75
63090;BME280;49174;43.198;27.824;2023-07-31T09:27:52;101068.25;;;28.49;56.80
63090;BME280;49174;43.198;27.824;2023-07-31T09:30:18;101074.59;;;28.49;56.30
63090;BME280;49174;43.198;27.824;2023-07-31T09:32:45;101074.13;;;28.47;55.78
63090;BME280;49174;43.198;27.824;2023-07-31T09:37:39;101076.28;;;28.50;56.14
63090;BME280;49174;43.198;27.824;2023-07-31T09:40:04;101072.06;;;28.53;57.44
63090;BME280;49174;43.198;27.824;2023-07-31T09:42:30;101069.66;;;28.60;57.10
63090;BME280;49174;43.198;27.824;2023-07-31T09:45:07;101074.38;;;28.73;57.27
63090;BME280;49174;43.198;27.824;2023-07-31T09:47:34;101073.47;;;28.78;56.54
63090;BME280;49174;43.198;27.824;2023-07-31T09:49:59;101070.06;;;28.81;56.01
63090;BME280;49174;43.198;27.824;2023-07-31T09:52:26;101062.84;;;28.80;56.48
63090;BME280;49174;43.198;27.824;2023-07-31T09:54:52;101072.38;;;28.88;56.90
63090;BME280;49174;43.198;27.824;2023-07-31T09:57:21;101065.91;;;28.92;56.30
63090;BME280;49174;43.198;27.824;2023-07-31T09:59:48;101068.88;;;28.96;56.38
63090;BME280;49174;43.198;27.824;2023-07-31T10:02:20;101068.75;;;29.01;55.49
63090;BME280;49174;43.198;27.824;2023-07-31T10:04:48;101068.25;;;28.99;56.66
63090;BME280;49174;43.198;27.824;2023-07-31T10:07:17;101072.09;;;29.03;56.50
63090;BME280;49174;43.198;27.824;2023-07-31T10:09:44;101069.75;;;29.19;57.26
63090;BME280;49174;43.198;27.824;2023-07-31T10:12:12;101073.28;;;29.33;54.70
63090;BME280;49174;43.198;27.824;2023-07-31T10:14:41;101068.63;;;29.43;55.62
63090;BME280;49174;43.198;27.824;2023-07-31T10:17:07;101071.75;;;29.50;55.53
63090;BME280;49174;43.198;27.824;2023-07-31T10:19:34;101065.09;;;29.51;55.59
63090;BME280;49174;43.198;27.824;2023-07-31T10:22:00;101074.59;;;29.58;56.23
63090;BME280;49174;43.198;27.824;2023-07-31T10:24:28;101072.41;;;29.69;55.27
63090;BME280;49174;43.198;27.824;2023-07-31T10:26:57;101069.31;;;29.71;54.47
63090;BME280;49174;43.198;27.824;2023-07-31T10:29:24;101076.69;;;29.75;54.54
63090;BME280;49174;43.198;27.824;2023-07-31T10:31:51;101066.47;;;29.84;54.20
63090;BME280;49174;43.198;27.824;2023-07-31T10:34:17;101074.72;;;29.98;53.79
63090;BME280;49174;43.198;27.824;2023-07-31T10:36:43;101080.59;;;29.97;53.28
63090;BME280;49174;43.198;27.824;2023-07-31T10:39:37;101079.47;;;29.98;53.62
63090;BME280;49174;43.198;27.824;2023-07-31T10:42:14;101074.34;;;29.91;53.76
63090;BME280;49174;43.198;27.824;2023-07-31T10:44:49;101074.47;;;29.86;53.81
63090;BME280;49174;43.198;27.824;2023-07-31T10:47:15;101078.34;;;29.76;54.42
63090;BME280;49174;43.198;27.824;2023-07-31T10:49:45;101074.59;;;29.58;53.84
63090;BME280;49174;43.198;27.824;2023-07-31T10:52:11;101078.28;;;29.45;54.66
63090;BME280;49174;43.198;27.824;2023-07-31T10:54:38;101074.31;;;29.37;54.50
63090;BME280;49174;43.198;27.824;2023-07-31T10:57:19;101073.78;;;29.35;55.49
63090;BME280;49174;43.198;27.824;2023-07-31T10:59:44;101073.44;;;29.28;55.39
63090;BME280;49174;43.198;27.824;2023-07-31T11:02:24;101070.13;;;29.26;56.06
63090;BME280;49174;43.198;27.824;2023-07-31T11:05:08;101070.31;;;29.30;55.49
63090;BME280;49174;43.198;27.824;2023-07-31T11:07:47;101071.25;;;29.25;54.68
63090;BME280;49174;43.198;27.824;2023-07-31T11:10:18;101063.38;;;29.18;56.05
63090;BME280;49174;43.198;27.824;2023-07-31T11:12:45;101069.78;;;29.05;55.76
63090;BME280;49174;43.198;27.824;2023-07-31T11:15:12;101052.91;;;29.02;56.62
63090;BME280;49174;43.198;27.824;2023-07-31T11:17:39;101051.56;;;28.99;57.00
63090;BME280;49174;43.198;27.824;2023-07-31T11:20:06;101049.25;;;28.92;56.47
63090;BME280;49174;43.198;27.824;2023-07-31T11:22:36;101043.34;;;28.94;57.57
63090;BME280;49174;43.198;27.824;2023-07-31T11:25:05;101042.16;;;28.86;57.76
63090;BME280;49174;43.198;27.824;2023-07-31T11:27:38;101038.81;;;28.76;57.47
63090;BME280;49174;43.198;27.824;2023-07-31T11:30:05;101034.16;;;28.71;57.89
63090;BME280;49174;43.198;27.824;2023-07-31T11:32:36;101041.91;;;28.60;57.51
63090;BME280;49174;43.198;27.824;2023-07-31T11:35:02;101046.13;;;28.58;58.19
63090;BME280;49174;43.198;27.824;2023-07-31T11:37:43;101038.53;;;28.49;57.43
63090;BME280;49174;43.198;27.824;2023-07-31T11:40:09;101034.00;;;28.26;58.19
63090;BME280;49174;43.198;27.824;2023-07-31T11:42:35;101033.69;;;28.14;60.09
63090;BME280;49174;43.198;27.824;2023-07-31T11:45:05;101029.91;;;28.10;59.90
63090;BME280;49174;43.198;27.824;2023-07-31T11:47:32;101034.31;;;28.11;59.58
63090;BME280;49174;43.198;27.824;2023-07-31T11:50:00;101031.22;;;28.12;60.10
63090;BME280;49174;43.198;27.824;2023-07-31T11:52:28;101034.91;;;28.07;60.70
63090;BME280;49174;43.198;27.824;2023-07-31T11:54:56;101035.72;;;27.94;60.38
63090;BME280;49174;43.198;27.824;2023-07-31T11:57:22;101035.13;;;27.83;60.53
63090;BME280;49174;43.198;27.824;2023-07-31T11:59:49;101041.63;;;27.74;62.41
63090;BME280;49174;43.198;27.824;2023-07-31T12:02:15;101036.84;;;27.47;62.84
63090;BME280;49174;43.198;27.824;2023-07-31T12:04:41;101039.94;;;27.45;65.22
63090;BME280;49174;43.198;27.824;2023-07-31T12:07:07;101030.69;;;27.36;64.65
63090;BME280;49174;43.198;27.824;2023-07-31T12:09:33;101019.97;;;27.29;66.34
63090;BME280;49174;43.198;27.824;2023-07-31T12:11:58;101026.09;;;27.26;66.06
63090;BME280;49174;43.198;27.824;2023-07-31T12:14:27;101032.03;;;27.20;68.24
63090;BME280;49174;43.198;27.824;2023-07-31T12:17:04;101034.41;;;27.07;67.53
63090;BME280;49174;43.198;27.824;2023-07-31T12:19:30;101035.69;;;26.96;70.47
63090;BME280;49174;43.198;27.824;2023-07-31T12:22:01;101030.91;;;26.83;68.87
63090;BME280;49174;43.198;27.824;2023-07-31T12:24:27;101030.41;;;26.81;68.09
63090;BME280;49174;43.198;27.824;2023-07-31T12:26:53;101020.28;;;26.71;68.10
63090;BME280;49174;43.198;27.824;2023-07-31T12:29:20;101024.47;;;26.68;69.20
63090;BME280;49174;43.198;27.824;2023-07-31T12:31:45;101022.28;;;26.65;69.49
63090;BME280;49174;43.198;27.824;2023-07-31T12:34:19;101013.47;;;26.63;69.55
63090;BME280;49174;43.198;27.824;2023-07-31T12:36:46;101015.13;;;26.64;68.84
63090;BME280;49174;43.198;27.824;2023-07-31T12:39:14;101005.69;;;26.65;68.07
63090;BME280;49174;43.198;27.824;2023-07-31T12:41:40;101000.69;;;26.67;68.92
63090;BME280;49174;43.198;27.824;2023-07-31T12:44:05;100997.84;;;26.72;68.97